TRA5163 EHAM-HECA
Flight info
| Callsign | TRA5163 |
|---|---|
| Flight time | N/A |
| Altitude | 35000 |
| Route | EDUPO Z739 MISGO DCT DOJOH DCT DODEN DCT NEGIX DCT DINKU M867 XERUM DCT BAVAX DCT RADIZ DCT NEMEK/N0453F370 DCT MAVAR DCT BITLA DCT KPC UN139 KUMBI L612 BLT A16 CVO |
| Aircraft | B738/M-SDE2E3FGHIRWXY/LB1 |
Departure
| Time | 2026-05-05 09:42 |
|---|---|
| Airport | Amsterdam Airport Schiphol (EHAM) |
Arrival
| Time | N/A |
|---|---|
| Airport | Cairo International Airport (HECA) |
| Time | Latitude | Longitude | Altitude | Speed | Heading |
|---|---|---|---|---|---|
| 2026-05-05 09:08 | 52.30706 | 4.77216 | -2 ft | 0 kts | 4° |
| 2026-05-05 09:26 | 52.30703 | 4.77215 | -2 ft | 3 kts | 4° |
| 2026-05-05 09:26 | 52.30682 | 4.77215 | -2 ft | 4 kts | 356° |
| 2026-05-05 09:27 | 52.30664 | 4.77214 | -2 ft | 3 kts | 62° |
| 2026-05-05 09:27 | 52.30655 | 4.77186 | -2 ft | 1 kts | 64° |
| 2026-05-05 09:32 | 52.30660 | 4.77203 | -2 ft | 4 kts | 63° |
| 2026-05-05 09:32 | 52.30668 | 4.77266 | 10 ft | 7 kts | 104° |
| 2026-05-05 09:32 | 52.30640 | 4.77340 | -2 ft | 9 kts | 107° |
| 2026-05-05 09:33 | 52.30639 | 4.77448 | -2 ft | 11 kts | 90° |
| 2026-05-05 09:33 | 52.30655 | 4.77569 | -2 ft | 12 kts | 46° |
| 2026-05-05 09:33 | 52.30756 | 4.77600 | -2 ft | 18 kts | 5° |
| 2026-05-05 09:33 | 52.30903 | 4.77610 | -2 ft | 24 kts | 3° |
| 2026-05-05 09:34 | 52.31087 | 4.77629 | -2 ft | 29 kts | 4° |
| 2026-05-05 09:34 | 52.31282 | 4.77652 | -2 ft | 27 kts | 3° |
| 2026-05-05 09:34 | 52.31462 | 4.77623 | -2 ft | 26 kts | 330° |
| 2026-05-05 09:34 | 52.31574 | 4.77417 | -2 ft | 24 kts | 281° |
| 2026-05-05 09:35 | 52.31570 | 4.77155 | -2 ft | 23 kts | 266° |
| 2026-05-05 09:35 | 52.31547 | 4.76654 | -2 ft | 21 kts | 260° |
| 2026-05-05 09:35 | 52.31546 | 4.76415 | -2 ft | 21 kts | 269° |
| 2026-05-05 09:36 | 52.31536 | 4.76185 | -2 ft | 20 kts | 266° |
| 2026-05-05 09:36 | 52.31528 | 4.75959 | -2 ft | 20 kts | 267° |
| 2026-05-05 09:36 | 52.31522 | 4.75741 | -2 ft | 19 kts | 267° |
| 2026-05-05 09:36 | 52.31515 | 4.75529 | -2 ft | 18 kts | 267° |
| 2026-05-05 09:37 | 52.31510 | 4.75324 | -2 ft | 18 kts | 265° |
| 2026-05-05 09:37 | 52.31500 | 4.75127 | -2 ft | 17 kts | 265° |
| 2026-05-05 09:37 | 52.31492 | 4.74937 | -2 ft | 16 kts | 267° |
| 2026-05-05 09:37 | 52.31487 | 4.74754 | -2 ft | 16 kts | 267° |
| 2026-05-05 09:38 | 52.31481 | 4.74577 | -2 ft | 15 kts | 269° |
| 2026-05-05 09:38 | 52.31478 | 4.74408 | -2 ft | 15 kts | 266° |
| 2026-05-05 09:38 | 52.31468 | 4.74246 | -2 ft | 14 kts | 260° |
| 2026-05-05 09:38 | 52.31404 | 4.74146 | -2 ft | 13 kts | 194° |
| 2026-05-05 09:39 | 52.31314 | 4.74130 | -2 ft | 13 kts | 181° |
| 2026-05-05 09:39 | 52.31227 | 4.74131 | -2 ft | 13 kts | 178° |
| 2026-05-05 09:39 | 52.31140 | 4.74116 | -2 ft | 12 kts | 187° |
| 2026-05-05 09:39 | 52.31051 | 4.74105 | -2 ft | 14 kts | 180° |
| 2026-05-05 09:40 | 52.30940 | 4.74095 | -2 ft | 18 kts | 182° |
| 2026-05-05 09:40 | 52.30805 | 4.74088 | -2 ft | 21 kts | 186° |
| 2026-05-05 09:40 | 52.30659 | 4.74072 | -2 ft | 21 kts | 182° |
| 2026-05-05 09:40 | 52.30517 | 4.74062 | -2 ft | 20 kts | 183° |
| 2026-05-05 09:41 | 52.30409 | 4.73977 | -2 ft | 19 kts | 263° |
| 2026-05-05 09:41 | 52.30417 | 4.73775 | -4 ft | 11 kts | 299° |
| 2026-05-05 09:41 | 52.30461 | 4.73763 | -4 ft | 0 kts | 3° |
| 2026-05-05 09:41 | 52.30463 | 4.73763 | -4 ft | 3 kts | 3° |
| 2026-05-05 09:42 | 52.30620 | 4.73781 | -4 ft | 55 kts | 3° |
| 2026-05-05 09:42 | 52.31241 | 4.73836 | -3 ft | 121 kts | 3° |
| 2026-05-05 09:42 | 52.32245 | 4.73944 | 130 ft | 162 kts | 4° |
| 2026-05-05 09:42 | 52.33457 | 4.73795 | 751 ft | 179 kts | 355° |
| 2026-05-05 09:43 | 52.34584 | 4.73509 | 2013 ft | 156 kts | 8° |
| 2026-05-05 09:43 | 52.35627 | 4.74299 | 2272 ft | 189 kts | 48° |
| 2026-05-05 09:43 | 52.36386 | 4.76080 | 2889 ft | 190 kts | 57° |
| 2026-05-05 09:43 | 52.37276 | 4.77734 | 3277 ft | 203 kts | 28° |
| 2026-05-05 09:44 | 52.38479 | 4.78956 | 3911 ft | 207 kts | 37° |
| 2026-05-05 09:44 | 52.39649 | 4.80581 | 4139 ft | 238 kts | 39° |
| 2026-05-05 09:44 | 52.40964 | 4.82464 | 4513 ft | 260 kts | 40° |
| 2026-05-05 09:44 | 52.42056 | 4.84841 | 5266 ft | 267 kts | 66° |
| 2026-05-05 09:45 | 52.42421 | 4.87783 | 5832 ft | 264 kts | 88° |
| 2026-05-05 09:45 | 52.42429 | 4.90847 | 6509 ft | 273 kts | 90° |
| 2026-05-05 09:45 | 52.42425 | 4.93989 | 7225 ft | 279 kts | 90° |
| 2026-05-05 09:45 | 52.42298 | 4.97188 | 7934 ft | 285 kts | 105° |
| 2026-05-05 09:46 | 52.41343 | 5.00010 | 8717 ft | 285 kts | 133° |
| 2026-05-05 09:46 | 52.39824 | 5.02056 | 9484 ft | 289 kts | 146° |
| 2026-05-05 09:46 | 52.38135 | 5.03944 | 10132 ft | 296 kts | 146° |
| 2026-05-05 09:46 | 52.36378 | 5.05911 | 10395 ft | 319 kts | 146° |
| 2026-05-05 09:47 | 52.34485 | 5.08061 | 10572 ft | 342 kts | 146° |
| 2026-05-05 09:47 | 52.32555 | 5.10565 | 10738 ft | 364 kts | 135° |
| 2026-05-05 09:47 | 52.30848 | 5.13636 | 11213 ft | 373 kts | 131° |
| 2026-05-05 09:47 | 52.29156 | 5.16914 | 11851 ft | 377 kts | 130° |
| 2026-05-05 09:48 | 52.27436 | 5.20176 | 12522 ft | 382 kts | 132° |
| 2026-05-05 09:48 | 52.25659 | 5.23445 | 13270 ft | 384 kts | 133° |
| 2026-05-05 09:48 | 52.23878 | 5.26745 | 13869 ft | 389 kts | 129° |
| 2026-05-05 09:48 | 52.22248 | 5.30279 | 14557 ft | 390 kts | 126° |
| 2026-05-05 09:49 | 52.20698 | 5.33932 | 15160 ft | 394 kts | 125° |
| 2026-05-05 09:49 | 52.19147 | 5.37642 | 15768 ft | 397 kts | 125° |
| 2026-05-05 09:49 | 52.17589 | 5.41326 | 16272 ft | 403 kts | 126° |
| 2026-05-05 09:49 | 52.15967 | 5.45100 | 16889 ft | 405 kts | 126° |
| 2026-05-05 09:50 | 52.14352 | 5.48824 | 17750 ft | 400 kts | 127° |
| 2026-05-05 09:50 | 52.12733 | 5.52539 | 18352 ft | 403 kts | 126° |
| 2026-05-05 09:50 | 52.11092 | 5.56296 | 18741 ft | 409 kts | 127° |
| 2026-05-05 09:50 | 52.09443 | 5.60053 | 19169 ft | 414 kts | 127° |
| 2026-05-05 09:51 | 52.07760 | 5.63883 | 19642 ft | 417 kts | 127° |
| 2026-05-05 09:51 | 52.06060 | 5.67737 | 20109 ft | 420 kts | 128° |
| 2026-05-05 09:51 | 52.04215 | 5.71454 | 20575 ft | 422 kts | 133° |
| 2026-05-05 09:51 | 52.02250 | 5.75040 | 21033 ft | 425 kts | 133° |
| 2026-05-05 09:52 | 52.00272 | 5.78629 | 21481 ft | 428 kts | 133° |
| 2026-05-05 09:52 | 51.98314 | 5.82245 | 21902 ft | 432 kts | 133° |
| 2026-05-05 09:52 | 51.96333 | 5.85944 | 22326 ft | 435 kts | 133° |
| 2026-05-05 09:52 | 51.94330 | 5.89681 | 22679 ft | 440 kts | 133° |
| 2026-05-05 09:53 | 51.92312 | 5.93439 | 23051 ft | 444 kts | 133° |
| 2026-05-05 09:53 | 51.90964 | 5.95947 | 23343 ft | 445 kts | 133° |
| 2026-05-05 09:53 | 51.88247 | 6.00993 | 23906 ft | 446 kts | 133° |
| 2026-05-05 09:53 | 51.86871 | 6.03544 | 24233 ft | 445 kts | 133° |
| 2026-05-05 09:54 | 51.84828 | 6.07322 | 24610 ft | 447 kts | 133° |
| 2026-05-05 09:54 | 51.82786 | 6.11066 | 24897 ft | 450 kts | 134° |
| 2026-05-05 09:54 | 51.80699 | 6.14878 | 25207 ft | 453 kts | 134° |
| 2026-05-05 09:54 | 51.78601 | 6.18708 | 25546 ft | 455 kts | 134° |
| 2026-05-05 09:55 | 51.76492 | 6.22555 | 25887 ft | 457 kts | 134° |
| 2026-05-05 09:55 | 51.74382 | 6.26407 | 26209 ft | 459 kts | 134° |
| 2026-05-05 09:55 | 51.72281 | 6.30241 | 26513 ft | 461 kts | 134° |
| 2026-05-05 09:55 | 51.70149 | 6.34129 | 26765 ft | 464 kts | 134° |
| 2026-05-05 09:56 | 51.68000 | 6.38046 | 27046 ft | 466 kts | 134° |
| 2026-05-05 09:56 | 51.65842 | 6.41971 | 27340 ft | 467 kts | 135° |
| 2026-05-05 09:56 | 51.63702 | 6.45854 | 27655 ft | 469 kts | 135° |
| 2026-05-05 09:56 | 51.61532 | 6.49785 | 28024 ft | 468 kts | 135° |
| 2026-05-05 09:57 | 51.59368 | 6.53699 | 28457 ft | 466 kts | 135° |
| 2026-05-05 09:57 | 51.57210 | 6.57597 | 28804 ft | 466 kts | 135° |
| 2026-05-05 09:57 | 51.55047 | 6.61498 | 29126 ft | 467 kts | 135° |
| 2026-05-05 09:57 | 51.52913 | 6.65342 | 29487 ft | 466 kts | 135° |
| 2026-05-05 09:58 | 51.50754 | 6.69227 | 29899 ft | 464 kts | 136° |
| 2026-05-05 09:58 | 51.48589 | 6.73118 | 30275 ft | 462 kts | 136° |
| 2026-05-05 09:58 | 51.46468 | 6.76922 | 30548 ft | 463 kts | 136° |
| 2026-05-05 09:58 | 51.44313 | 6.80783 | 30785 ft | 464 kts | 136° |
| 2026-05-05 09:59 | 51.42150 | 6.84650 | 31080 ft | 463 kts | 136° |
| 2026-05-05 09:59 | 51.40018 | 6.88415 | 31425 ft | 460 kts | 139° |
| 2026-05-05 09:59 | 51.37784 | 6.92058 | 31775 ft | 457 kts | 141° |
| 2026-05-05 09:59 | 51.35502 | 6.95595 | 32131 ft | 454 kts | 141° |
| 2026-05-05 10:00 | 51.33208 | 6.99086 | 32521 ft | 452 kts | 142° |
| 2026-05-05 10:00 | 51.30951 | 7.02512 | 32868 ft | 451 kts | 142° |
| 2026-05-05 10:00 | 51.28674 | 7.05983 | 33181 ft | 450 kts | 142° |
| 2026-05-05 10:00 | 51.26410 | 7.09448 | 33466 ft | 450 kts | 142° |
| 2026-05-05 10:01 | 51.24148 | 7.12922 | 33831 ft | 449 kts | 142° |
| 2026-05-05 10:01 | 51.21926 | 7.16341 | 34074 ft | 450 kts | 141° |
| 2026-05-05 10:01 | 51.17346 | 7.23378 | 34173 ft | 459 kts | 141° |
| 2026-05-05 10:02 | 51.15042 | 7.26914 | 34429 ft | 457 kts | 141° |
| 2026-05-05 10:02 | 51.12781 | 7.30381 | 34711 ft | 455 kts | 141° |
| 2026-05-05 10:02 | 51.10498 | 7.33877 | 34880 ft | 456 kts | 141° |
| 2026-05-05 10:02 | 51.08198 | 7.37388 | 34866 ft | 458 kts | 141° |
| 2026-05-05 10:03 | 51.03626 | 7.44358 | 34876 ft | 455 kts | 142° |
| 2026-05-05 10:03 | 50.99076 | 7.51276 | 34875 ft | 450 kts | 142° |
| 2026-05-05 10:04 | 50.94548 | 7.58135 | 34855 ft | 449 kts | 142° |
| 2026-05-05 10:04 | 50.90062 | 7.64914 | 34869 ft | 447 kts | 142° |
| 2026-05-05 10:05 | 50.85540 | 7.71730 | 34876 ft | 447 kts | 142° |
| 2026-05-05 10:05 | 50.81030 | 7.78487 | 34881 ft | 448 kts | 142° |
| 2026-05-05 10:06 | 50.76489 | 7.85228 | 34894 ft | 449 kts | 142° |
| 2026-05-05 10:06 | 50.71909 | 7.92013 | 34893 ft | 452 kts | 142° |
| 2026-05-05 10:07 | 50.67332 | 7.98783 | 34880 ft | 453 kts | 142° |
| 2026-05-05 10:07 | 50.62706 | 8.05610 | 34887 ft | 454 kts | 142° |
| 2026-05-05 10:08 | 50.58290 | 8.12703 | 34867 ft | 460 kts | 135° |
| 2026-05-05 10:08 | 50.54319 | 8.20654 | 34865 ft | 460 kts | 133° |
| 2026-05-05 10:09 | 50.50412 | 8.28534 | 34860 ft | 458 kts | 134° |
| 2026-05-05 10:09 | 50.46437 | 8.36367 | 34848 ft | 456 kts | 134° |
| 2026-05-05 10:10 | 50.42482 | 8.44081 | 34851 ft | 456 kts | 134° |
| 2026-05-05 10:10 | 50.38504 | 8.51828 | 34863 ft | 454 kts | 134° |
| 2026-05-05 10:11 | 50.34355 | 8.59250 | 34863 ft | 451 kts | 139° |
| 2026-05-05 10:11 | 50.30040 | 8.66361 | 34855 ft | 450 kts | 139° |
| 2026-05-05 10:12 | 50.25739 | 8.73424 | 34860 ft | 450 kts | 139° |
| 2026-05-05 10:12 | 50.21438 | 8.80545 | 34863 ft | 450 kts | 139° |
| 2026-05-05 10:13 | 50.17164 | 8.87639 | 34857 ft | 450 kts | 139° |
| 2026-05-05 10:13 | 50.12871 | 8.94755 | 34862 ft | 451 kts | 139° |
| 2026-05-05 10:14 | 50.08554 | 9.01889 | 34864 ft | 451 kts | 139° |
| 2026-05-05 10:14 | 50.04251 | 9.08977 | 34869 ft | 451 kts | 139° |
| 2026-05-05 10:15 | 49.99940 | 9.16057 | 34842 ft | 451 kts | 139° |
| 2026-05-05 10:15 | 49.95629 | 9.23120 | 34862 ft | 451 kts | 139° |
| 2026-05-05 10:16 | 49.91299 | 9.30193 | 34869 ft | 451 kts | 139° |
| 2026-05-05 10:16 | 49.86958 | 9.37265 | 34865 ft | 451 kts | 139° |
| 2026-05-05 10:17 | 49.82724 | 9.44143 | 34865 ft | 452 kts | 139° |
| 2026-05-05 10:17 | 49.78621 | 9.50790 | 34860 ft | 451 kts | 139° |
| 2026-05-05 10:18 | 49.74308 | 9.57761 | 34856 ft | 450 kts | 139° |
| 2026-05-05 10:18 | 49.69962 | 9.64763 | 34854 ft | 449 kts | 139° |
| 2026-05-05 10:19 | 49.65624 | 9.71733 | 34862 ft | 449 kts | 139° |
| 2026-05-05 10:19 | 49.61314 | 9.78640 | 34859 ft | 448 kts | 139° |
| 2026-05-05 10:20 | 49.56972 | 9.85579 | 34859 ft | 448 kts | 139° |
| 2026-05-05 10:20 | 49.52658 | 9.92454 | 34837 ft | 448 kts | 139° |
| 2026-05-05 10:21 | 49.48327 | 9.99339 | 34868 ft | 448 kts | 139° |
| 2026-05-05 10:21 | 49.43997 | 10.06203 | 34850 ft | 449 kts | 139° |
| 2026-05-05 10:22 | 49.39637 | 10.13097 | 34856 ft | 449 kts | 139° |
| 2026-05-05 10:22 | 49.35301 | 10.19934 | 34850 ft | 448 kts | 139° |
| 2026-05-05 10:23 | 49.30933 | 10.26806 | 34858 ft | 448 kts | 139° |
| 2026-05-05 10:23 | 49.26600 | 10.33604 | 34858 ft | 448 kts | 139° |
| 2026-05-05 10:24 | 49.21997 | 10.39931 | 34856 ft | 439 kts | 152° |
| 2026-05-05 10:24 | 49.16782 | 10.44641 | 34861 ft | 436 kts | 155° |
| 2026-05-05 10:25 | 49.11531 | 10.49326 | 34866 ft | 435 kts | 154° |
| 2026-05-05 10:25 | 49.06339 | 10.54016 | 34867 ft | 435 kts | 154° |
| 2026-05-05 10:26 | 49.01140 | 10.58730 | 34867 ft | 434 kts | 154° |
| 2026-05-05 10:26 | 48.95948 | 10.63430 | 34853 ft | 434 kts | 154° |
| 2026-05-05 10:27 | 48.90755 | 10.68116 | 34853 ft | 434 kts | 154° |
| 2026-05-05 10:27 | 48.85539 | 10.72812 | 34861 ft | 436 kts | 154° |
| 2026-05-05 10:28 | 48.80497 | 10.77886 | 34844 ft | 443 kts | 143° |
| 2026-05-05 10:28 | 48.76229 | 10.84768 | 34849 ft | 449 kts | 136° |
| 2026-05-05 10:29 | 48.72084 | 10.91863 | 34850 ft | 450 kts | 136° |
| 2026-05-05 10:29 | 48.67907 | 10.98926 | 34846 ft | 450 kts | 136° |
| 2026-05-05 10:30 | 48.63705 | 11.05955 | 34855 ft | 451 kts | 137° |
| 2026-05-05 10:30 | 48.59473 | 11.12999 | 34854 ft | 451 kts | 137° |
| 2026-05-05 10:31 | 48.55246 | 11.20016 | 34852 ft | 452 kts | 137° |
| 2026-05-05 10:31 | 48.51008 | 11.27035 | 34825 ft | 453 kts | 137° |
| 2026-05-05 10:32 | 48.46759 | 11.34054 | 34826 ft | 453 kts | 136° |
| 2026-05-05 10:32 | 48.42532 | 11.41018 | 34837 ft | 454 kts | 136° |
| 2026-05-05 10:33 | 48.38262 | 11.48035 | 34833 ft | 455 kts | 136° |
| 2026-05-05 10:33 | 48.33977 | 11.55058 | 34831 ft | 456 kts | 137° |
| 2026-05-05 10:34 | 48.29682 | 11.62083 | 34831 ft | 456 kts | 137° |
| 2026-05-05 10:34 | 48.25347 | 11.69062 | 34821 ft | 455 kts | 139° |
| 2026-05-05 10:35 | 48.20724 | 11.75529 | 34833 ft | 454 kts | 142° |
| 2026-05-05 10:35 | 48.16001 | 11.81842 | 34834 ft | 455 kts | 142° |
| 2026-05-05 10:36 | 48.11318 | 11.88162 | 34825 ft | 455 kts | 141° |
| 2026-05-05 10:36 | 48.06637 | 11.94538 | 34824 ft | 456 kts | 141° |
| 2026-05-05 10:37 | 48.01935 | 12.00947 | 34806 ft | 456 kts | 141° |
| 2026-05-05 10:37 | 47.97262 | 12.07299 | 34819 ft | 456 kts | 141° |
| 2026-05-05 10:38 | 47.92566 | 12.13664 | 34818 ft | 455 kts | 141° |
| 2026-05-05 10:38 | 47.87895 | 12.19978 | 34822 ft | 454 kts | 141° |
| 2026-05-05 10:39 | 47.83198 | 12.26310 | 34817 ft | 454 kts | 141° |
| 2026-05-05 10:39 | 47.79299 | 12.31555 | 34811 ft | 454 kts | 141° |
| 2026-05-05 10:40 | 47.73848 | 12.38869 | 34819 ft | 453 kts | 141° |
| 2026-05-05 10:40 | 47.69957 | 12.44078 | 34812 ft | 452 kts | 141° |
| 2026-05-05 10:41 | 47.65266 | 12.50345 | 34815 ft | 451 kts | 141° |
| 2026-05-05 10:41 | 47.60643 | 12.56567 | 34817 ft | 451 kts | 140° |
| 2026-05-05 10:42 | 47.53859 | 12.66202 | 34819 ft | 450 kts | 139° |
| 2026-05-05 10:43 | 47.49329 | 12.72649 | 34831 ft | 449 kts | 140° |
| 2026-05-05 10:43 | 47.44830 | 12.79006 | 34834 ft | 449 kts | 140° |
| 2026-05-05 10:44 | 47.40320 | 12.85346 | 34853 ft | 448 kts | 140° |
| 2026-05-05 10:44 | 47.35810 | 12.91665 | 34864 ft | 448 kts | 140° |
| 2026-05-05 10:45 | 47.31262 | 12.98020 | 34856 ft | 449 kts | 140° |
| 2026-05-05 10:45 | 47.26748 | 13.04315 | 34871 ft | 449 kts | 140° |
| 2026-05-05 10:46 | 47.22207 | 13.10633 | 34880 ft | 446 kts | 140° |
| 2026-05-05 10:46 | 47.17681 | 13.16912 | 34892 ft | 448 kts | 140° |
| 2026-05-05 10:47 | 47.13153 | 13.23179 | 34902 ft | 450 kts | 139° |
| 2026-05-05 10:47 | 47.08576 | 13.29499 | 34909 ft | 448 kts | 140° |
| 2026-05-05 10:48 | 47.04082 | 13.35695 | 34912 ft | 440 kts | 140° |
| 2026-05-05 10:48 | 46.99632 | 13.41810 | 34924 ft | 436 kts | 140° |
| 2026-05-05 10:49 | 46.95189 | 13.47896 | 34945 ft | 441 kts | 140° |
| 2026-05-05 10:49 | 46.90666 | 13.54078 | 34981 ft | 447 kts | 140° |
| 2026-05-05 10:50 | 46.86106 | 13.60297 | 34950 ft | 452 kts | 140° |
| 2026-05-05 10:50 | 46.81480 | 13.66596 | 34978 ft | 452 kts | 140° |
| 2026-05-05 10:51 | 46.76900 | 13.72814 | 34958 ft | 451 kts | 140° |
| 2026-05-05 10:51 | 46.72305 | 13.79039 | 34955 ft | 452 kts | 140° |
| 2026-05-05 10:52 | 46.67681 | 13.85285 | 34982 ft | 453 kts | 140° |
| 2026-05-05 10:52 | 46.63046 | 13.91531 | 34959 ft | 454 kts | 140° |
| 2026-05-05 10:53 | 46.58401 | 13.97776 | 34975 ft | 454 kts | 140° |
| 2026-05-05 10:53 | 46.53758 | 14.04002 | 34976 ft | 454 kts | 140° |
| 2026-05-05 10:54 | 46.49116 | 14.10212 | 34974 ft | 453 kts | 141° |
| 2026-05-05 10:54 | 46.44462 | 14.16418 | 34988 ft | 455 kts | 141° |
| 2026-05-05 10:55 | 46.39799 | 14.22626 | 35005 ft | 455 kts | 140° |
| 2026-05-05 10:55 | 46.35161 | 14.28791 | 35014 ft | 455 kts | 140° |
| 2026-05-05 10:56 | 46.30501 | 14.34966 | 35019 ft | 454 kts | 140° |
| 2026-05-05 10:56 | 46.25834 | 14.41135 | 35015 ft | 454 kts | 140° |
| 2026-05-05 10:57 | 46.21172 | 14.47282 | 35019 ft | 453 kts | 140° |
| 2026-05-05 10:57 | 46.16517 | 14.53405 | 35024 ft | 452 kts | 140° |
| 2026-05-05 10:58 | 46.11866 | 14.59508 | 35020 ft | 452 kts | 140° |
| 2026-05-05 10:58 | 46.07210 | 14.65603 | 35032 ft | 452 kts | 140° |
| 2026-05-05 10:59 | 46.02549 | 14.71690 | 35028 ft | 452 kts | 140° |
| 2026-05-05 10:59 | 45.97910 | 14.77735 | 35023 ft | 452 kts | 140° |
| 2026-05-05 11:00 | 45.93235 | 14.83812 | 35029 ft | 453 kts | 140° |
| 2026-05-05 11:00 | 45.88548 | 14.89889 | 35033 ft | 454 kts | 140° |
| 2026-05-05 11:01 | 45.83853 | 14.95963 | 35033 ft | 454 kts | 140° |
| 2026-05-05 11:01 | 45.79179 | 15.01996 | 35036 ft | 455 kts | 141° |
| 2026-05-05 11:02 | 45.74456 | 15.08077 | 35019 ft | 456 kts | 141° |
| 2026-05-05 11:02 | 45.69732 | 15.14145 | 35037 ft | 456 kts | 141° |
| 2026-05-05 11:03 | 45.64997 | 15.20217 | 35024 ft | 457 kts | 141° |
| 2026-05-05 11:03 | 45.60291 | 15.26236 | 35034 ft | 457 kts | 141° |
| 2026-05-05 11:04 | 45.55619 | 15.32397 | 35021 ft | 458 kts | 137° |
| 2026-05-05 11:04 | 45.51169 | 15.38934 | 35015 ft | 459 kts | 136° |
| 2026-05-05 11:05 | 45.46766 | 15.45521 | 35023 ft | 459 kts | 136° |
| 2026-05-05 11:05 | 45.42343 | 15.52070 | 35021 ft | 459 kts | 136° |
| 2026-05-05 11:06 | 45.37898 | 15.58590 | 35019 ft | 459 kts | 136° |
| 2026-05-05 11:06 | 45.33467 | 15.65058 | 35021 ft | 459 kts | 136° |
| 2026-05-05 11:07 | 45.28999 | 15.71560 | 35017 ft | 460 kts | 136° |
| 2026-05-05 11:07 | 45.24523 | 15.78061 | 35010 ft | 460 kts | 137° |
| 2026-05-05 11:08 | 45.20048 | 15.84547 | 35018 ft | 460 kts | 137° |
| 2026-05-05 11:08 | 45.15561 | 15.91035 | 35015 ft | 461 kts | 137° |
| 2026-05-05 11:09 | 45.11067 | 15.97517 | 35002 ft | 461 kts | 137° |
| 2026-05-05 11:09 | 45.06575 | 16.03980 | 35011 ft | 461 kts | 137° |
| 2026-05-05 11:10 | 45.02074 | 16.10441 | 35007 ft | 461 kts | 137° |
| 2026-05-05 11:10 | 44.97591 | 16.16861 | 35005 ft | 461 kts | 137° |
| 2026-05-05 11:11 | 44.93072 | 16.23317 | 35008 ft | 463 kts | 137° |
| 2026-05-05 11:11 | 44.88528 | 16.29794 | 35015 ft | 465 kts | 137° |
| 2026-05-05 11:12 | 44.83970 | 16.36275 | 35016 ft | 466 kts | 137° |
| 2026-05-05 11:12 | 44.79392 | 16.42769 | 35018 ft | 468 kts | 137° |
| 2026-05-05 11:13 | 44.74824 | 16.49234 | 35014 ft | 469 kts | 137° |
| 2026-05-05 11:13 | 44.70218 | 16.55735 | 35022 ft | 469 kts | 137° |
| 2026-05-05 11:14 | 44.65575 | 16.62274 | 35022 ft | 470 kts | 137° |
| 2026-05-05 11:14 | 44.60979 | 16.68731 | 35024 ft | 470 kts | 137° |
| 2026-05-05 11:15 | 44.56351 | 16.75220 | 35022 ft | 470 kts | 137° |
| 2026-05-05 11:15 | 44.51716 | 16.81701 | 35015 ft | 470 kts | 137° |
| 2026-05-05 11:16 | 44.47079 | 16.88169 | 35024 ft | 470 kts | 138° |
| 2026-05-05 11:16 | 44.42474 | 16.94578 | 35026 ft | 469 kts | 138° |
| 2026-05-05 11:17 | 44.37842 | 17.01009 | 35039 ft | 469 kts | 138° |
| 2026-05-05 11:17 | 44.33205 | 17.07432 | 35031 ft | 469 kts | 138° |
| 2026-05-05 11:18 | 44.28558 | 17.13853 | 35043 ft | 471 kts | 138° |
| 2026-05-05 11:18 | 44.23888 | 17.20291 | 35043 ft | 472 kts | 138° |
| 2026-05-05 11:19 | 44.19231 | 17.26695 | 35053 ft | 474 kts | 138° |
| 2026-05-05 11:19 | 44.14524 | 17.33154 | 35045 ft | 475 kts | 138° |
| 2026-05-05 11:20 | 44.09805 | 17.39615 | 35068 ft | 476 kts | 138° |
| 2026-05-05 11:20 | 44.05072 | 17.46079 | 35054 ft | 477 kts | 138° |
| 2026-05-05 11:21 | 44.00320 | 17.52553 | 35062 ft | 478 kts | 138° |
| 2026-05-05 11:21 | 43.95565 | 17.59016 | 35053 ft | 479 kts | 138° |
| 2026-05-05 11:22 | 43.90826 | 17.65441 | 35066 ft | 480 kts | 138° |
| 2026-05-05 11:22 | 43.86042 | 17.71914 | 35057 ft | 480 kts | 138° |
| 2026-05-05 11:23 | 43.81252 | 17.78378 | 35066 ft | 480 kts | 138° |
| 2026-05-05 11:23 | 43.76465 | 17.84824 | 35047 ft | 480 kts | 138° |
| 2026-05-05 11:24 | 43.71702 | 17.91222 | 35055 ft | 480 kts | 138° |
| 2026-05-05 11:24 | 43.66898 | 17.97659 | 35072 ft | 481 kts | 138° |
| 2026-05-05 11:25 | 43.62086 | 18.04092 | 35084 ft | 482 kts | 138° |
| 2026-05-05 11:25 | 43.57263 | 18.10525 | 35069 ft | 483 kts | 138° |
| 2026-05-05 11:26 | 43.52421 | 18.16969 | 35070 ft | 483 kts | 139° |
| 2026-05-05 11:26 | 43.47588 | 18.23385 | 35068 ft | 483 kts | 139° |
| 2026-05-05 11:27 | 43.42749 | 18.29795 | 35078 ft | 482 kts | 139° |
| 2026-05-05 11:27 | 43.37949 | 18.36138 | 35086 ft | 482 kts | 139° |
| 2026-05-05 11:28 | 43.33111 | 18.42515 | 35096 ft | 482 kts | 139° |
| 2026-05-05 11:28 | 43.28267 | 18.48886 | 35084 ft | 482 kts | 139° |
| 2026-05-05 11:29 | 43.23413 | 18.55254 | 35102 ft | 483 kts | 139° |
| 2026-05-05 11:29 | 43.18539 | 18.61635 | 35087 ft | 485 kts | 139° |
| 2026-05-05 11:30 | 43.14465 | 18.66956 | 35093 ft | 487 kts | 139° |
| 2026-05-05 11:30 | 43.09556 | 18.73357 | 35088 ft | 488 kts | 139° |
| 2026-05-05 11:31 | 43.04635 | 18.79757 | 35078 ft | 489 kts | 139° |
| 2026-05-05 11:31 | 42.99695 | 18.86166 | 35091 ft | 490 kts | 139° |
| 2026-05-05 11:32 | 42.94736 | 18.92586 | 35099 ft | 491 kts | 139° |
| 2026-05-05 11:32 | 42.89765 | 18.99006 | 35101 ft | 493 kts | 139° |
| 2026-05-05 11:33 | 42.84776 | 19.05434 | 35103 ft | 494 kts | 139° |
| 2026-05-05 11:33 | 42.79803 | 19.11826 | 35098 ft | 494 kts | 139° |
| 2026-05-05 11:34 | 42.74796 | 19.18248 | 35102 ft | 495 kts | 140° |
| 2026-05-05 11:34 | 42.69773 | 19.24674 | 35116 ft | 496 kts | 140° |
| 2026-05-05 11:35 | 42.64732 | 19.31110 | 35121 ft | 498 kts | 140° |
| 2026-05-05 11:35 | 42.59705 | 19.37527 | 35160 ft | 494 kts | 140° |
| 2026-05-05 11:36 | 42.54665 | 19.43925 | 35127 ft | 497 kts | 140° |
| 2026-05-05 11:36 | 42.49586 | 19.50354 | 35118 ft | 501 kts | 140° |
| 2026-05-05 11:37 | 42.44441 | 19.56800 | 35114 ft | 506 kts | 140° |
| 2026-05-05 11:37 | 42.39333 | 19.63272 | 35142 ft | 507 kts | 140° |
| 2026-05-05 11:38 | 42.34170 | 19.69800 | 35114 ft | 506 kts | 140° |
| 2026-05-05 11:38 | 42.29061 | 19.76227 | 35103 ft | 499 kts | 140° |
| 2026-05-05 11:39 | 42.23968 | 19.82605 | 35123 ft | 500 kts | 139° |
| 2026-05-05 11:39 | 42.18849 | 19.89000 | 35126 ft | 502 kts | 139° |
| 2026-05-05 11:40 | 42.13697 | 19.95424 | 35127 ft | 505 kts | 139° |
| 2026-05-05 11:40 | 42.08530 | 20.01852 | 35117 ft | 507 kts | 139° |
| 2026-05-05 11:41 | 42.03339 | 20.08296 | 35104 ft | 508 kts | 139° |
| 2026-05-05 11:41 | 41.98135 | 20.14742 | 35104 ft | 509 kts | 139° |
| 2026-05-05 11:42 | 41.92916 | 20.21192 | 35121 ft | 510 kts | 139° |
| 2026-05-05 11:42 | 41.87717 | 20.27601 | 35112 ft | 511 kts | 139° |
| 2026-05-05 11:43 | 41.82473 | 20.34051 | 35113 ft | 510 kts | 139° |
| 2026-05-05 11:43 | 41.77238 | 20.40475 | 35112 ft | 510 kts | 139° |
| 2026-05-05 11:44 | 41.71991 | 20.46900 | 35111 ft | 510 kts | 139° |
| 2026-05-05 11:44 | 41.66744 | 20.53292 | 35110 ft | 510 kts | 140° |
| 2026-05-05 11:45 | 41.61286 | 20.59245 | 35103 ft | 508 kts | 143° |
| 2026-05-05 11:45 | 41.55707 | 20.65016 | 35119 ft | 507 kts | 144° |
| 2026-05-05 11:46 | 41.50100 | 20.70839 | 35099 ft | 507 kts | 143° |
| 2026-05-05 11:46 | 41.44590 | 20.76615 | 35113 ft | 507 kts | 143° |
| 2026-05-05 11:47 | 41.39053 | 20.82429 | 35125 ft | 506 kts | 142° |
| 2026-05-05 11:47 | 41.33517 | 20.88227 | 35127 ft | 507 kts | 143° |
| 2026-05-05 11:48 | 41.25187 | 20.96923 | 35125 ft | 507 kts | 142° |
| 2026-05-05 11:48 | 41.19626 | 21.02710 | 35122 ft | 508 kts | 142° |
| 2026-05-05 11:49 | 41.14056 | 21.08494 | 35125 ft | 508 kts | 143° |
| 2026-05-05 11:49 | 41.08522 | 21.14229 | 35114 ft | 509 kts | 142° |
| 2026-05-05 11:50 | 41.02927 | 21.20013 | 35114 ft | 510 kts | 142° |
| 2026-05-05 11:50 | 40.97336 | 21.25782 | 35119 ft | 510 kts | 142° |
| 2026-05-05 11:51 | 40.91734 | 21.31551 | 35117 ft | 510 kts | 142° |
| 2026-05-05 11:51 | 40.86163 | 21.37371 | 35115 ft | 510 kts | 140° |
| 2026-05-05 11:52 | 40.80831 | 21.43558 | 35117 ft | 510 kts | 138° |
| 2026-05-05 11:52 | 40.75573 | 21.49835 | 35121 ft | 510 kts | 137° |
| 2026-05-05 11:53 | 40.70285 | 21.56095 | 35113 ft | 510 kts | 138° |
| 2026-05-05 11:53 | 40.64976 | 21.62310 | 35110 ft | 510 kts | 138° |
| 2026-05-05 11:54 | 40.59687 | 21.68467 | 35120 ft | 510 kts | 138° |
| 2026-05-05 11:54 | 40.54357 | 21.74658 | 35122 ft | 510 kts | 139° |
| 2026-05-05 11:55 | 40.49040 | 21.80823 | 35132 ft | 510 kts | 138° |
| 2026-05-05 11:55 | 40.43721 | 21.86979 | 35125 ft | 509 kts | 138° |
| 2026-05-05 11:56 | 40.38407 | 21.93116 | 35127 ft | 508 kts | 138° |
| 2026-05-05 11:56 | 40.33097 | 21.99235 | 35132 ft | 508 kts | 138° |
| 2026-05-05 11:57 | 40.27816 | 22.05306 | 35124 ft | 507 kts | 138° |
| 2026-05-05 11:57 | 40.22511 | 22.11392 | 35113 ft | 507 kts | 139° |
| 2026-05-05 11:58 | 40.17192 | 22.17482 | 35139 ft | 509 kts | 138° |
| 2026-05-05 11:58 | 40.11822 | 22.23616 | 35417 ft | 513 kts | 138° |
| 2026-05-05 11:59 | 40.09140 | 22.26675 | 35721 ft | 511 kts | 139° |
| 2026-05-05 11:59 | 40.06467 | 22.29720 | 36029 ft | 509 kts | 139° |
| 2026-05-05 11:59 | 40.03799 | 22.32756 | 36284 ft | 508 kts | 139° |
| 2026-05-05 11:59 | 40.01138 | 22.35780 | 36573 ft | 506 kts | 139° |
| 2026-05-05 12:00 | 39.98483 | 22.38795 | 36788 ft | 505 kts | 139° |
| 2026-05-05 12:00 | 39.95867 | 22.41763 | 36971 ft | 505 kts | 139° |
| 2026-05-05 12:00 | 39.90544 | 22.47790 | 37087 ft | 506 kts | 139° |
| 2026-05-05 12:01 | 39.85215 | 22.53813 | 37082 ft | 506 kts | 139° |
| 2026-05-05 12:01 | 39.79890 | 22.59818 | 37069 ft | 506 kts | 139° |
| 2026-05-05 12:02 | 39.74598 | 22.65773 | 37072 ft | 506 kts | 139° |
| 2026-05-05 12:02 | 39.69275 | 22.71751 | 37060 ft | 504 kts | 139° |
| 2026-05-05 12:03 | 39.63969 | 22.77696 | 37084 ft | 504 kts | 139° |
| 2026-05-05 12:03 | 39.58651 | 22.83642 | 37078 ft | 504 kts | 139° |
| 2026-05-05 12:04 | 39.53328 | 22.89582 | 37075 ft | 505 kts | 139° |
| 2026-05-05 12:04 | 39.48004 | 22.95509 | 37078 ft | 504 kts | 139° |
| 2026-05-05 12:05 | 39.42677 | 23.01429 | 37067 ft | 505 kts | 139° |
| 2026-05-05 12:05 | 39.37339 | 23.07347 | 37056 ft | 505 kts | 139° |
| 2026-05-05 12:06 | 39.32001 | 23.13254 | 37071 ft | 505 kts | 139° |
| 2026-05-05 12:06 | 39.26659 | 23.19153 | 37079 ft | 506 kts | 139° |
| 2026-05-05 12:07 | 39.21344 | 23.25010 | 37078 ft | 507 kts | 139° |
| 2026-05-05 12:07 | 39.15978 | 23.30910 | 37073 ft | 508 kts | 139° |
| 2026-05-05 12:08 | 39.10599 | 23.36813 | 37074 ft | 508 kts | 139° |
| 2026-05-05 12:08 | 39.05215 | 23.42709 | 37080 ft | 508 kts | 139° |
| 2026-05-05 12:09 | 38.99821 | 23.48603 | 37061 ft | 509 kts | 139° |
| 2026-05-05 12:09 | 38.94422 | 23.54491 | 37063 ft | 509 kts | 139° |
| 2026-05-05 12:10 | 38.89019 | 23.60371 | 37069 ft | 509 kts | 139° |
| 2026-05-05 12:10 | 38.83612 | 23.66244 | 37072 ft | 509 kts | 139° |
| 2026-05-05 12:11 | 38.78211 | 23.72096 | 37077 ft | 508 kts | 139° |
| 2026-05-05 12:11 | 38.72812 | 23.77937 | 37090 ft | 508 kts | 140° |
| 2026-05-05 12:12 | 38.67407 | 23.83771 | 37088 ft | 508 kts | 140° |
| 2026-05-05 12:12 | 38.61998 | 23.89579 | 37037 ft | 506 kts | 140° |
| 2026-05-05 12:13 | 38.56616 | 23.95355 | 37059 ft | 505 kts | 140° |
| 2026-05-05 12:13 | 38.51295 | 24.01083 | 37083 ft | 502 kts | 140° |
| 2026-05-05 12:14 | 38.45932 | 24.06833 | 37079 ft | 503 kts | 140° |
| 2026-05-05 12:14 | 38.40559 | 24.12575 | 37085 ft | 505 kts | 140° |
| 2026-05-05 12:15 | 38.35164 | 24.18326 | 37088 ft | 506 kts | 140° |
| 2026-05-05 12:15 | 38.29757 | 24.24079 | 37068 ft | 506 kts | 140° |
| 2026-05-05 12:16 | 38.24347 | 24.29824 | 37086 ft | 507 kts | 140° |
| 2026-05-05 12:16 | 38.18925 | 24.35573 | 37089 ft | 508 kts | 140° |
| 2026-05-05 12:17 | 38.13484 | 24.41329 | 37102 ft | 509 kts | 140° |
| 2026-05-05 12:17 | 38.08034 | 24.47083 | 37075 ft | 510 kts | 140° |
| 2026-05-05 12:18 | 38.03506 | 24.51855 | 37076 ft | 508 kts | 140° |
| 2026-05-05 12:18 | 37.97193 | 24.58491 | 37083 ft | 506 kts | 140° |
| 2026-05-05 12:19 | 37.91785 | 24.64167 | 37087 ft | 505 kts | 140° |
| 2026-05-05 12:19 | 37.87253 | 24.68916 | 37086 ft | 504 kts | 140° |
| 2026-05-05 12:20 | 37.81845 | 24.74570 | 37087 ft | 503 kts | 140° |
| 2026-05-05 12:20 | 37.76484 | 24.80164 | 37085 ft | 503 kts | 140° |
| 2026-05-05 12:21 | 37.71082 | 24.85791 | 37095 ft | 503 kts | 140° |
| 2026-05-05 12:21 | 37.65678 | 24.91408 | 37098 ft | 504 kts | 141° |
| 2026-05-05 12:22 | 37.60263 | 24.97026 | 37099 ft | 505 kts | 141° |
| 2026-05-05 12:22 | 37.54834 | 25.02648 | 37120 ft | 505 kts | 141° |
| 2026-05-05 12:23 | 37.49392 | 25.08272 | 37103 ft | 506 kts | 141° |
| 2026-05-05 12:23 | 37.43940 | 25.13895 | 37095 ft | 507 kts | 141° |
| 2026-05-05 12:24 | 37.38483 | 25.19513 | 37100 ft | 507 kts | 141° |
| 2026-05-05 12:24 | 37.33022 | 25.25123 | 37094 ft | 507 kts | 141° |
| 2026-05-05 12:25 | 37.27551 | 25.30734 | 37093 ft | 507 kts | 141° |
| 2026-05-05 12:25 | 37.22083 | 25.36330 | 37111 ft | 507 kts | 141° |
| 2026-05-05 12:26 | 37.16609 | 25.41921 | 37092 ft | 507 kts | 141° |
| 2026-05-05 12:26 | 37.11145 | 25.47492 | 37114 ft | 506 kts | 141° |
| 2026-05-05 12:27 | 37.05681 | 25.53052 | 37091 ft | 506 kts | 141° |
| 2026-05-05 12:27 | 37.00229 | 25.58590 | 37093 ft | 504 kts | 141° |
| 2026-05-05 12:28 | 36.94786 | 25.64107 | 37101 ft | 504 kts | 141° |
| 2026-05-05 12:28 | 36.89338 | 25.69619 | 37074 ft | 504 kts | 141° |
| 2026-05-05 12:29 | 36.83895 | 25.75116 | 37087 ft | 503 kts | 141° |
| 2026-05-05 12:29 | 36.78453 | 25.80601 | 37092 ft | 503 kts | 142° |
| 2026-05-05 12:30 | 36.73042 | 25.86045 | 37091 ft | 503 kts | 142° |
| 2026-05-05 12:30 | 36.67590 | 25.91520 | 37085 ft | 504 kts | 142° |
| 2026-05-05 12:31 | 36.62128 | 25.96994 | 37101 ft | 504 kts | 142° |
| 2026-05-05 12:31 | 36.56657 | 26.02468 | 37078 ft | 505 kts | 142° |
| 2026-05-05 12:32 | 36.51178 | 26.07939 | 37084 ft | 505 kts | 142° |
| 2026-05-05 12:32 | 36.45688 | 26.13411 | 37085 ft | 506 kts | 142° |
| 2026-05-05 12:33 | 36.40188 | 26.18882 | 37082 ft | 507 kts | 142° |
| 2026-05-05 12:33 | 36.34688 | 26.24343 | 37082 ft | 507 kts | 142° |
| 2026-05-05 12:34 | 36.29171 | 26.29812 | 37075 ft | 507 kts | 142° |
| 2026-05-05 12:34 | 36.23657 | 26.35266 | 37077 ft | 507 kts | 142° |
| 2026-05-05 12:35 | 36.18135 | 26.40718 | 37076 ft | 507 kts | 142° |
| 2026-05-05 12:35 | 36.12616 | 26.46158 | 37076 ft | 507 kts | 142° |
| 2026-05-05 12:36 | 36.07091 | 26.51593 | 37070 ft | 507 kts | 142° |
| 2026-05-05 12:36 | 36.01568 | 26.57017 | 37066 ft | 507 kts | 142° |
| 2026-05-05 12:37 | 35.96082 | 26.62394 | 37066 ft | 506 kts | 142° |
| 2026-05-05 12:37 | 35.90565 | 26.67791 | 37070 ft | 506 kts | 142° |
| 2026-05-05 12:38 | 35.85053 | 26.73175 | 37067 ft | 505 kts | 142° |
| 2026-05-05 12:38 | 35.79542 | 26.78547 | 37069 ft | 505 kts | 143° |
| 2026-05-05 12:39 | 35.74032 | 26.83909 | 37051 ft | 505 kts | 143° |
| 2026-05-05 12:39 | 35.68525 | 26.89257 | 37067 ft | 504 kts | 143° |
| 2026-05-05 12:40 | 35.63020 | 26.94595 | 37058 ft | 504 kts | 143° |
| 2026-05-05 12:40 | 35.57516 | 26.99922 | 37055 ft | 503 kts | 143° |
| 2026-05-05 12:41 | 35.52012 | 27.05240 | 37050 ft | 503 kts | 143° |
| 2026-05-05 12:41 | 35.46512 | 27.10546 | 37050 ft | 503 kts | 143° |
| 2026-05-05 12:42 | 35.41006 | 27.15849 | 37041 ft | 503 kts | 143° |
| 2026-05-05 12:42 | 35.35506 | 27.21162 | 37065 ft | 504 kts | 143° |
| 2026-05-05 12:43 | 35.30002 | 27.26480 | 37057 ft | 504 kts | 143° |
| 2026-05-05 12:43 | 35.24525 | 27.31763 | 37058 ft | 504 kts | 143° |
| 2026-05-05 12:44 | 35.19000 | 27.37079 | 37058 ft | 505 kts | 143° |
| 2026-05-05 12:44 | 35.13476 | 27.42386 | 37058 ft | 505 kts | 143° |
| 2026-05-05 12:45 | 35.07952 | 27.47697 | 37074 ft | 506 kts | 143° |
| 2026-05-05 12:45 | 35.02414 | 27.52991 | 37062 ft | 506 kts | 143° |
| 2026-05-05 12:46 | 34.96859 | 27.58268 | 37057 ft | 506 kts | 143° |
| 2026-05-05 12:46 | 34.91306 | 27.63530 | 37054 ft | 505 kts | 143° |
| 2026-05-05 12:47 | 34.85756 | 27.68781 | 37027 ft | 505 kts | 144° |
| 2026-05-05 12:47 | 34.80211 | 27.74020 | 37052 ft | 504 kts | 144° |
| 2026-05-05 12:48 | 34.74662 | 27.79253 | 37061 ft | 504 kts | 144° |
| 2026-05-05 12:48 | 34.69119 | 27.84472 | 37062 ft | 504 kts | 144° |
| 2026-05-05 12:49 | 34.63568 | 27.89688 | 37062 ft | 504 kts | 144° |
| 2026-05-05 12:49 | 34.58007 | 27.94899 | 37064 ft | 505 kts | 144° |
| 2026-05-05 12:50 | 34.52451 | 28.00100 | 37068 ft | 504 kts | 144° |
| 2026-05-05 12:50 | 34.46925 | 28.05267 | 37070 ft | 505 kts | 144° |
| 2026-05-05 12:51 | 34.41318 | 28.10500 | 37066 ft | 506 kts | 144° |
| 2026-05-05 12:51 | 34.35777 | 28.15663 | 37065 ft | 506 kts | 144° |
| 2026-05-05 12:52 | 34.30197 | 28.20853 | 37063 ft | 506 kts | 144° |
| 2026-05-05 12:52 | 34.24606 | 28.26044 | 37051 ft | 506 kts | 145° |
| 2026-05-05 12:53 | 34.19024 | 28.31218 | 37066 ft | 506 kts | 145° |
| 2026-05-05 12:53 | 34.13390 | 28.36432 | 37073 ft | 507 kts | 145° |
| 2026-05-05 12:54 | 34.05029 | 28.44152 | 37069 ft | 507 kts | 145° |
| 2026-05-05 12:55 | 33.99424 | 28.49315 | 37068 ft | 507 kts | 145° |
| 2026-05-05 12:55 | 33.93822 | 28.54468 | 37056 ft | 506 kts | 146° |
| 2026-05-05 12:56 | 33.88227 | 28.59600 | 37067 ft | 506 kts | 146° |
| 2026-05-05 12:56 | 33.82622 | 28.64732 | 37072 ft | 506 kts | 146° |
| 2026-05-05 12:57 | 33.77019 | 28.69863 | 37080 ft | 507 kts | 146° |
| 2026-05-05 12:57 | 33.71408 | 28.75002 | 37075 ft | 507 kts | 144° |
| 2026-05-05 12:58 | 33.66121 | 28.80645 | 37046 ft | 509 kts | 139° |
| 2026-05-05 12:58 | 33.61007 | 28.86531 | 37071 ft | 509 kts | 139° |
| 2026-05-05 12:59 | 33.55884 | 28.92387 | 37073 ft | 509 kts | 140° |
| 2026-05-05 12:59 | 33.50717 | 28.98197 | 37083 ft | 509 kts | 140° |
| 2026-05-05 13:00 | 33.42982 | 29.06819 | 37074 ft | 509 kts | 140° |
| 2026-05-05 13:01 | 33.32593 | 29.18372 | 37040 ft | 509 kts | 140° |
| 2026-05-05 13:01 | 33.27408 | 29.24128 | 37061 ft | 509 kts | 140° |
| 2026-05-05 13:02 | 33.22213 | 29.29884 | 37067 ft | 509 kts | 141° |
| 2026-05-05 13:02 | 33.17017 | 29.35631 | 37067 ft | 509 kts | 141° |
| 2026-05-05 13:03 | 33.11849 | 29.41338 | 37078 ft | 509 kts | 141° |
| 2026-05-05 13:03 | 33.06644 | 29.47076 | 37075 ft | 509 kts | 141° |
| 2026-05-05 13:04 | 33.01441 | 29.52802 | 37073 ft | 509 kts | 141° |
| 2026-05-05 13:04 | 32.96241 | 29.58515 | 37072 ft | 509 kts | 141° |
| 2026-05-05 13:05 | 32.91037 | 29.64223 | 37073 ft | 509 kts | 141° |
| 2026-05-05 13:05 | 32.85832 | 29.69923 | 37074 ft | 509 kts | 141° |
| 2026-05-05 13:06 | 32.81500 | 29.74658 | 37074 ft | 509 kts | 141° |
| 2026-05-05 13:06 | 32.76288 | 29.80348 | 37073 ft | 509 kts | 141° |
| 2026-05-05 13:07 | 32.71075 | 29.86031 | 37077 ft | 509 kts | 142° |
| 2026-05-05 13:07 | 32.65852 | 29.91713 | 37054 ft | 508 kts | 142° |
| 2026-05-05 13:08 | 32.60641 | 29.97375 | 37067 ft | 508 kts | 142° |
| 2026-05-05 13:08 | 32.55423 | 30.03035 | 37077 ft | 508 kts | 142° |
| 2026-05-05 13:09 | 32.50204 | 30.08688 | 37073 ft | 509 kts | 142° |
| 2026-05-05 13:09 | 32.44972 | 30.14338 | 37079 ft | 509 kts | 142° |
| 2026-05-05 13:10 | 32.39732 | 30.19984 | 37076 ft | 509 kts | 142° |
| 2026-05-05 13:10 | 32.34490 | 30.25624 | 37051 ft | 509 kts | 142° |
| 2026-05-05 13:11 | 32.29253 | 30.31254 | 37071 ft | 509 kts | 143° |
| 2026-05-05 13:11 | 32.24015 | 30.36874 | 37076 ft | 509 kts | 143° |
| 2026-05-05 13:12 | 32.18777 | 30.42485 | 37074 ft | 509 kts | 143° |
| 2026-05-05 13:12 | 32.13533 | 30.48093 | 37074 ft | 509 kts | 143° |
| 2026-05-05 13:13 | 32.08290 | 30.53692 | 37074 ft | 509 kts | 143° |
| 2026-05-05 13:13 | 32.03045 | 30.59283 | 37073 ft | 508 kts | 143° |
| 2026-05-05 13:14 | 31.97793 | 30.64873 | 37077 ft | 508 kts | 143° |
| 2026-05-05 13:14 | 31.92579 | 30.70414 | 37076 ft | 508 kts | 143° |
| 2026-05-05 13:15 | 31.87325 | 30.75989 | 37072 ft | 508 kts | 143° |
| 2026-05-05 13:15 | 31.82073 | 30.81552 | 37077 ft | 508 kts | 143° |
| 2026-05-05 13:16 | 31.76819 | 30.87109 | 37079 ft | 508 kts | 143° |
| 2026-05-05 13:16 | 31.71562 | 30.92660 | 37079 ft | 508 kts | 143° |
| 2026-05-05 13:17 | 31.66309 | 30.98200 | 37068 ft | 507 kts | 144° |
| 2026-05-05 13:17 | 31.61061 | 31.03725 | 37069 ft | 507 kts | 144° |
| 2026-05-05 13:18 | 31.55762 | 31.09134 | 37044 ft | 493 kts | 152° |
| 2026-05-05 13:18 | 31.52904 | 31.11169 | 36770 ft | 473 kts | 162° |
| 2026-05-05 13:18 | 31.49889 | 31.12641 | 36026 ft | 467 kts | 170° |
| 2026-05-05 13:19 | 31.46754 | 31.13576 | 35132 ft | 463 kts | 180° |
| 2026-05-05 13:19 | 31.43540 | 31.14115 | 34246 ft | 470 kts | 180° |